Diamond, Oregon
Current Conditions -  °F | °C
As of 1:53 PM on Friday 24 Oct 2014 (Local Time) from KBNO Reporting Station
Broken Clouds Broken Clouds  
Wind Chill: 55°   Ceiling: 11000
Heat Index: 55°   Visibility: 10mi
Dew Point: 46°   Wind: 13mph
Humidity: 72%   Direction: 30°NNE
Pressure: 30.01"   Gusts: NA
Location:  43.01°N, 118.66°W
Report Text: KBNO 242053Z AUTO 03011KT 10SM BKN110 13/08 A3001 RMK AO2 SLP152 T01280078 58022
Loading
Personal Weather Stations






























Interactive Weather Map
Tropical Storm Tracking
New forecast layout! Learn more

10-Day Weather Forecast

Advertisements
Track Severe Weather on mobile